Hauptseite
METAR-TAF:

METAR-TAF

Flughäfen :

Flughafen Istanbul-Atatürk

Istanbul Atatürk, Türkei

Breite: 40-58N, Länge: 028-49E, Höhe: 48 m

Beobachtung

Neuester Wetterbericht von vor 50 Minuten, um 15:50 UTC
Wind 4 kt aus Süd/Südwest
Temperatur 8°C
Luftfeuchtigkeit 71%
Luftdruck 1017 hPa
Sichtweite 10 km oder mehr
keine Wolken unter 1500 m und keine Kumulonimbus oder Gewitterwolken

METAR: LTBA 251550Z 20004KT CAVOK 08/03 Q1017 NOSIG RMK RWY17L 18004KT RWY05 22003KT RWY23 21002KT

Zeit: 19:40 (16:40 UTC)

Prognose

Neuester Wetterbericht von vor 6 Stunden und 0 Minuten, um 10:40 UTC
Gültige Prognose vom 25 um 12 UTC bis 26 um 18 UTC
Wind 8 kt aus Süd
Sichtweite 10 km oder mehr
keine Wolken unter 1500 m und keine Kumulonimbus oder Gewitterwolken
Übergehend zu
vom 26 um 06 UTC bis 26 um 09 UTC
Wind 20 kt aus Süd/Südwest, Böen bis zu 35 kt

TAF: LTBA 251040Z 2512/2618 18008KT CAVOK BECMG 2606/2609 21020G35KT

Wetterbeobachtungen und Prognosen von mehr als 4000 Flughäfen (METAR und TAF Bericht).

Die verfügbaren Stationen werden durch gelbe und rote Markierungen auf der Karte dargestellt.

Führen Sie die Maus auf sie, um den Namen der Station zu sehen.

Darauf klicken, um die Beobachtung von Wetterbeobachtungen und Prognosen zu sehen.

Um die Karte zu ändern : klicken Sie auf den grünen Tasten mit einem schwarzen Kreuz Zum Vergrößern, auf den grünen Button mit einem Gedankenstrich zu verkleinern, oder auf die grünen Pfeile für benachbarte Karten.


METAR-TAF: